Airport Name : Arar

Other Name : Arar

ICAO : OERR

IATA : RAE

FAA :

Latitude : 30.906589

Longitude : 41.138217

Country : Saudi Arabia

Local Date and Time : 18 Jul 2024 21:18

 

TAF (Terminal Aerodrome Forecast)

TAF OERR 181100Z 1812/1918 33010KT CAVOK BECMG 1906/1908 27013KT

 

METAR (METeorological Aerodrome Report)

OERR 181800Z 00000KT CAVOK 39/00 Q1003 NOSIG

OERR 181700Z 00000KT CAVOK 41/M02 Q1003 NOSIG

OERR 181600Z 33007KT CAVOK 42/M01 Q1003 NOSIG

OERR 181500Z 33012KT CAVOK 43/00 Q1003 NOSIG